Time;durP1;ratioP1;P1;durP2;ratioP2;P2;SDS_P1;SDS_P2;PMS_P1;PMS_P2;Temp;Humidity;BMP_temperature;BMP_pressure;BME280_temperature;BME280_humidity;BME280_pressure;Samples;Min_cycle;Max_cycle;Signal;HPM_P1;HPM_P2
2021/03/03 00:00:27;;;;;;;25.50;15.17;;;5.30;76.70;;;;;;5006277;28;20740;-39
2021/03/03 00:02:54;;;;;;;27.00;15.40;;;5.30;76.70;;;;;;5025592;28;20874;-40
2021/03/03 00:05:24;;;;;;;22.93;12.87;;;5.30;76.80;;;;;;5022366;28;20531;-39
2021/03/03 00:07:50;;;;;;;27.77;15.60;;;5.30;76.70;;;;;;5025771;28;21107;-40
2021/03/03 00:10:16;;;;;;;22.47;13.90;;;5.20;76.80;;;;;;5024190;28;20474;-39
2021/03/03 00:12:42;;;;;;;25.40;15.30;;;5.20;76.90;;;;;;5010126;28;20455;-39
2021/03/03 00:15:12;;;;;;;32.10;14.97;;;5.20;76.90;;;;;;5007998;28;20459;-39
2021/03/03 00:17:39;;;;;;;20.27;13.20;;;5.20;76.90;;;;;;5026139;28;20671;-39
2021/03/03 00:20:06;;;;;;;21.63;13.20;;;5.20;77.00;;;;;;5010534;28;20549;-39
2021/03/03 00:22:33;;;;;;;23.37;13.20;;;5.10;77.20;;;;;;5024630;28;20552;-39
2021/03/03 00:24:59;;;;;;;25.17;15.23;;;5.10;77.20;;;;;;5027509;28;20534;-39
2021/03/03 00:27:25;;;;;;;23.40;14.57;;;5.10;77.30;;;;;;5028742;28;20479;-40
2021/03/03 00:30:18;;;;;;;21.03;13.03;;;5.10;77.30;;;;;;5029710;28;20445;-39
2021/03/03 00:32:44;;;;;;;24.63;13.43;;;5.10;77.40;;;;;;5024423;28;20703;-39
2021/03/03 00:35:11;;;;;;;24.20;14.30;;;5.10;77.40;;;;;;5025806;28;20495;-39
2021/03/03 00:37:37;;;;;;;25.57;14.53;;;5.10;77.40;;;;;;5011701;28;20473;-39
2021/03/03 00:40:06;;;;;;;26.40;15.30;;;5.10;77.40;;;;;;5005735;28;20558;-39
2021/03/03 00:42:32;;;;;;;21.53;13.00;;;5.10;77.50;;;;;;5009263;28;20543;-39
2021/03/03 00:44:58;;;;;;;24.10;15.00;;;5.00;77.50;;;;;;4994805;28;20491;-40
2021/03/03 00:47:25;;;;;;;29.67;15.50;;;5.00;77.60;;;;;;5041165;28;20479;-40
2021/03/03 00:49:51;;;;;;;25.37;15.20;;;5.00;77.60;;;;;;4995053;28;20455;-39
2021/03/03 00:52:18;;;;;;;25.50;15.07;;;5.00;77.70;;;;;;5026095;28;20530;-40
2021/03/03 00:54:44;;;;;;;22.13;13.60;;;5.00;77.70;;;;;;5044288;28;20455;-40
2021/03/03 00:57:11;;;;;;;24.00;14.47;;;4.90;77.70;;;;;;5010549;28;20494;-40
2021/03/03 00:59:37;;;;;;;25.80;15.00;;;4.90;77.70;;;;;;5009262;28;20547;-40
2021/03/03 01:02:04;;;;;;;22.50;13.60;;;4.90;77.70;;;;;;5009135;28;20553;-42
2021/03/03 01:04:34;;;;;;;26.63;14.50;;;4.90;77.80;;;;;;5026309;28;20451;-40
2021/03/03 01:07:03;;;;;;;23.40;14.10;;;4.90;77.80;;;;;;5027208;28;20542;-41
2021/03/03 01:09:34;;;;;;;21.27;12.10;;;4.90;77.70;;;;;;5008446;28;20491;-40
2021/03/03 01:12:01;;;;;;;24.83;15.60;;;4.80;77.70;;;;;;5028217;28;20486;-39
2021/03/03 01:14:27;;;;;;;24.60;14.03;;;4.80;77.70;;;;;;5005802;28;20461;-39
2021/03/03 01:16:54;;;;;;;30.17;15.93;;;4.80;77.70;;;;;;5028621;28;20513;-40
2021/03/03 01:19:20;;;;;;;28.10;15.20;;;4.80;77.70;;;;;;4989804;28;20463;-39
2021/03/03 01:21:49;;;;;;;25.87;14.93;;;4.70;77.70;;;;;;5043871;28;20452;-39
2021/03/03 01:24:15;;;;;;;32.57;16.73;;;4.70;77.80;;;;;;5025200;28;20937;-39
2021/03/03 01:26:42;;;;;;;31.13;15.33;;;4.70;77.80;;;;;;5007168;28;20535;-39
2021/03/03 01:29:08;;;;;;;25.07;14.83;;;4.70;77.90;;;;;;5026468;28;21089;-42
2021/03/03 01:31:34;;;;;;;20.30;12.97;;;4.70;77.90;;;;;;5028303;28;20455;-39
2021/03/03 01:34:01;;;;;;;26.43;15.17;;;4.60;78.00;;;;;;5041705;28;20459;-39
2021/03/03 01:36:28;;;;;;;27.67;14.37;;;4.60;78.00;;;;;;5008856;28;20539;-40
2021/03/03 01:38:54;;;;;;;26.37;15.33;;;4.60;78.00;;;;;;5023209;28;20498;-40
2021/03/03 01:41:21;;;;;;;27.07;16.23;;;4.60;78.10;;;;;;5027916;28;20571;-39
2021/03/03 01:43:51;;;;;;;25.93;15.20;;;4.60;78.10;;;;;;5021146;28;20908;-40
2021/03/03 01:46:17;;;;;;;27.90;15.77;;;4.60;78.10;;;;;;5025357;28;20542;-42
2021/03/03 01:48:44;;;;;;;32.03;17.10;;;4.50;78.20;;;;;;5010340;28;20491;-42
2021/03/03 01:51:10;;;;;;;30.50;17.23;;;4.50;78.20;;;;;;5006843;28;20889;-41
2021/03/03 01:53:40;;;;;;;25.67;15.07;;;4.50;78.20;;;;;;5024615;28;20464;-41
2021/03/03 01:56:11;;;;;;;24.70;14.27;;;4.50;78.30;;;;;;5021362;28;20481;-41
2021/03/03 01:58:45;;;;;;;28.13;16.63;;;4.50;78.30;;;;;;5024333;28;20525;-41
2021/03/03 02:01:18;;;;;;;21.67;15.20;;;4.40;78.30;;;;;;5004281;28;20471;-39
2021/03/03 02:03:44;;;;;;;32.07;16.50;;;4.40;78.30;;;;;;5023300;28;20455;-41
2021/03/03 02:06:36;;;;;;;27.27;16.27;;;4.40;78.40;;;;;;5026010;28;20456;-41
2021/03/03 02:09:08;;;;;;;28.70;17.00;;;4.40;78.50;;;;;;5025610;28;20534;-41
2021/03/03 02:11:40;;;;;;;25.80;14.90;;;4.40;78.50;;;;;;5025322;28;20535;-41
2021/03/03 02:14:11;;;;;;;36.17;18.40;;;4.40;78.60;;;;;;5036585;28;20546;-41
2021/03/03 02:16:37;;;;;;;24.90;15.60;;;4.40;78.60;;;;;;5026306;28;20538;-41
2021/03/03 02:19:06;;;;;;;35.20;19.20;;;4.40;78.60;;;;;;4990452;28;20476;-41
2021/03/03 02:21:42;;;;;;;29.83;18.17;;;4.30;78.70;;;;;;5007097;28;20455;-41
2021/03/03 02:24:25;;;;;;;29.47;16.37;;;4.40;78.60;;;;;;5023948;28;20554;-39
2021/03/03 02:26:52;;;;;;;34.40;16.13;;;4.30;78.60;;;;;;5024816;28;20495;-41
2021/03/03 02:29:23;;;;;;;31.03;18.43;;;4.30;78.70;;;;;;5024179;28;20526;-41
2021/03/03 02:31:51;;;;;;;29.17;17.13;;;4.30;78.70;;;;;;5018910;28;20463;-40
2021/03/03 02:34:22;;;;;;;30.00;17.90;;;4.30;78.70;;;;;;5022525;28;20544;-41
2021/03/03 02:36:49;;;;;;;30.40;18.03;;;4.30;78.70;;;;;;5019164;28;20538;-41
2021/03/03 02:39:17;;;;;;;32.80;18.50;;;4.30;78.90;;;;;;5022708;28;20796;-41
2021/03/03 02:41:48;;;;;;;35.37;19.40;;;4.30;78.90;;;;;;5023307;28;20534;-41
2021/03/03 02:44:23;;;;;;;32.27;20.47;;;4.20;78.90;;;;;;5025101;28;20542;-42
2021/03/03 02:46:52;;;;;;;35.60;20.73;;;4.20;79.00;;;;;;5008118;28;20463;-41
2021/03/03 02:49:22;;;;;;;26.90;17.40;;;4.20;79.00;;;;;;5023077;28;20495;-41
2021/03/03 02:51:48;;;;;;;29.03;17.27;;;4.20;79.00;;;;;;5007546;28;21023;-41
2021/03/03 02:54:16;;;;;;;29.53;18.27;;;4.20;79.00;;;;;;5004886;28;20547;-41
2021/03/03 02:56:47;;;;;;;28.67;16.93;;;4.20;79.00;;;;;;5026268;28;20536;-41
2021/03/03 02:59:47;;;;;;;26.40;16.63;;;4.20;79.10;;;;;;5025486;28;21013;-41
2021/03/03 03:02:15;;;;;;;26.33;15.57;;;4.20;79.10;;;;;;5024261;28;20543;-41
2021/03/03 03:04:47;;;;;;;30.87;16.90;;;4.20;79.20;;;;;;5033556;28;20530;-41
2021/03/03 03:07:20;;;;;;;30.27;16.20;;;4.20;79.20;;;;;;5019229;28;20463;-41
2021/03/03 03:09:48;;;;;;;29.60;17.17;;;4.20;79.20;;;;;;5002984;28;20567;-41
2021/03/03 03:12:17;;;;;;;32.60;17.17;;;4.20;79.20;;;;;;5018554;28;20463;-41
2021/03/03 03:14:47;;;;;;;35.87;18.50;;;4.20;79.30;;;;;;5023129;28;20542;-41
2021/03/03 03:17:17;;;;;;;28.07;17.50;;;4.20;79.20;;;;;;5017294;28;20460;-41
2021/03/03 03:19:46;;;;;;;34.30;18.07;;;4.10;79.20;;;;;;5039244;28;20848;-41
2021/03/03 03:22:16;;;;;;;27.47;17.30;;;4.10;79.10;;;;;;5023116;28;20459;-41
2021/03/03 03:24:43;;;;;;;31.77;17.40;;;4.10;79.10;;;;;;5038382;28;20470;-41
2021/03/03 03:27:14;;;;;;;35.63;19.23;;;4.10;79.20;;;;;;5027404;28;20827;-41
2021/03/03 03:29:41;;;;;;;28.77;17.00;;;4.10;79.10;;;;;;5004122;28;20467;-41
2021/03/03 03:32:23;;;;;;;24.40;16.30;;;4.10;79.10;;;;;;5025680;28;20525;-41
2021/03/03 03:34:50;;;;;;;29.60;16.30;;;4.10;79.10;;;;;;5018093;28;20459;-41
2021/03/03 03:37:19;;;;;;;33.47;21.43;;;4.00;79.10;;;;;;4991034;28;20456;-41
2021/03/03 03:39:45;;;;;;;30.60;16.40;;;4.00;79.20;;;;;;4989040;28;20487;-42
2021/03/03 03:42:15;;;;;;;30.90;17.10;;;4.00;79.20;;;;;;5003596;28;20462;-41
2021/03/03 03:44:45;;;;;;;28.07;15.70;;;4.00;79.20;;;;;;5041942;28;20484;-41
2021/03/03 03:47:16;;;;;;;25.83;16.20;;;4.00;79.40;;;;;;5029073;28;20807;-41
2021/03/03 03:49:45;;;;;;;27.30;16.80;;;4.00;79.50;;;;;;5022103;28;20467;-41
2021/03/03 03:52:17;;;;;;;28.97;16.30;;;4.00;79.60;;;;;;5011714;28;20571;-41
2021/03/03 03:54:52;;;;;;;29.00;17.03;;;4.00;79.60;;;;;;5041967;28;20467;-41
2021/03/03 03:57:19;;;;;;;28.20;16.03;;;4.00;79.70;;;;;;5026789;28;20463;-41
2021/03/03 03:59:46;;;;;;;24.67;16.47;;;4.00;79.70;;;;;;5023728;28;20444;-41
2021/03/03 04:02:12;;;;;;;31.33;17.03;;;4.00;79.70;;;;;;5025462;28;20460;-41
2021/03/03 04:04:40;;;;;;;29.43;17.50;;;4.00;79.70;;;;;;5024461;28;20452;-41
2021/03/03 04:07:06;;;;;;;26.90;17.27;;;4.00;79.80;;;;;;5025464;28;20471;-41
2021/03/03 04:09:36;;;;;;;26.20;16.20;;;4.00;79.80;;;;;;5025971;28;20451;-41
2021/03/03 04:12:09;;;;;;;26.90;17.50;;;4.00;79.90;;;;;;5027298;28;20538;-41
2021/03/03 04:14:39;;;;;;;27.87;16.07;;;4.00;79.90;;;;;;5026067;28;20542;-41
2021/03/03 04:17:09;;;;;;;28.40;17.63;;;4.00;79.90;;;;;;5024317;28;20558;-41
2021/03/03 04:19:36;;;;;;;30.50;18.93;;;4.00;79.90;;;;;;5009707;28;20471;-41
2021/03/03 04:22:02;;;;;;;32.17;16.73;;;4.00;79.90;;;;;;5038566;28;20546;-41
2021/03/03 04:24:29;;;;;;;25.33;16.93;;;4.00;79.90;;;;;;5009598;28;21723;-41
2021/03/03 04:26:57;;;;;;;26.60;17.57;;;4.00;80.00;;;;;;5026385;28;20459;-41
2021/03/03 04:29:27;;;;;;;28.17;17.90;;;4.00;80.00;;;;;;5024318;28;20577;-40
2021/03/03 04:31:53;;;;;;;28.17;18.43;;;4.00;80.00;;;;;;5043083;28;20452;-41
2021/03/03 04:34:19;;;;;;;30.17;16.50;;;4.00;80.00;;;;;;5026903;28;20625;-41
2021/03/03 04:36:45;;;;;;;30.83;18.73;;;4.00;80.00;;;;;;5035833;28;20907;-41
2021/03/03 04:39:12;;;;;;;29.83;16.10;;;4.00;80.00;;;;;;5042970;28;20470;-41
2021/03/03 04:41:40;;;;;;;29.00;18.13;;;4.00;80.00;;;;;;5022520;28;20468;-41
2021/03/03 04:44:07;;;;;;;29.00;16.17;;;4.00;80.00;;;;;;5022162;28;20497;-41
2021/03/03 04:46:33;;;;;;;26.10;16.30;;;4.00;80.00;;;;;;5010473;28;20455;-41
2021/03/03 04:49:00;;;;;;;26.63;16.50;;;4.00;80.00;;;;;;5023047;28;20529;-41
2021/03/03 04:51:35;;;;;;;28.10;16.80;;;3.90;79.90;;;;;;5008865;28;20465;-41
2021/03/03 04:54:03;;;;;;;26.20;16.73;;;3.90;79.90;;;;;;5005361;28;20482;-41
2021/03/03 04:56:29;;;;;;;31.77;16.87;;;3.90;79.90;;;;;;5026252;28;20471;-41
2021/03/03 04:58:55;;;;;;;25.00;16.33;;;3.90;79.90;;;;;;5008968;28;20467;-41
2021/03/03 05:01:25;;;;;;;35.90;18.73;;;3.90;79.90;;;;;;5026785;28;20530;-41
2021/03/03 05:03:52;;;;;;;33.83;18.50;;;3.90;79.90;;;;;;5010637;28;20460;-41
2021/03/03 05:06:20;;;;;;;32.00;18.43;;;3.90;79.90;;;;;;5007179;28;20456;-41
2021/03/03 05:08:47;;;;;;;32.00;17.00;;;3.90;80.00;;;;;;5024255;28;20491;-41
2021/03/03 05:11:16;;;;;;;31.27;18.20;;;3.90;79.90;;;;;;5027023;28;20535;-41
2021/03/03 05:13:43;;;;;;;29.80;17.23;;;3.90;80.00;;;;;;4991759;28;20899;-41
2021/03/03 05:16:09;;;;;;;32.53;18.40;;;3.90;80.10;;;;;;5024976;28;20547;-41
2021/03/03 05:18:35;;;;;;;31.23;18.03;;;3.90;80.20;;;;;;5023902;28;20558;-41
2021/03/03 05:21:02;;;;;;;29.47;17.17;;;3.90;80.20;;;;;;4992165;28;20483;-41
2021/03/03 05:23:33;;;;;;;30.43;17.83;;;3.90;80.20;;;;;;5009972;28;20495;-41
2021/03/03 05:26:02;;;;;;;33.33;18.30;;;3.90;80.20;;;;;;5006549;28;20962;-41
2021/03/03 05:28:33;;;;;;;35.33;17.83;;;3.90;80.30;;;;;;5027963;28;20880;-41
2021/03/03 05:31:00;;;;;;;28.67;17.30;;;3.90;80.30;;;;;;5027366;28;20542;-41
2021/03/03 05:33:33;;;;;;;31.20;17.40;;;3.80;80.40;;;;;;5020286;28;20462;-41
2021/03/03 05:36:05;;;;;;;31.80;17.70;;;3.80;80.40;;;;;;5009649;28;20482;-41
2021/03/03 05:38:33;;;;;;;33.63;18.10;;;3.80;80.40;;;;;;5005044;28;20909;-41
2021/03/03 05:41:04;;;;;;;30.40;17.37;;;3.80;80.40;;;;;;5023721;28;20543;-41
2021/03/03 05:43:32;;;;;;;26.80;18.10;;;3.90;80.50;;;;;;5011624;28;20458;-42
2021/03/03 05:46:00;;;;;;;32.30;19.40;;;3.80;80.50;;;;;;5003657;28;20586;-41
2021/03/03 05:48:36;;;;;;;34.40;18.93;;;3.80;80.60;;;;;;5024055;28;20498;-41
2021/03/03 05:51:05;;;;;;;25.80;17.00;;;3.80;80.70;;;;;;5025084;28;20600;-41
2021/03/03 05:53:32;;;;;;;25.37;16.80;;;3.80;80.70;;;;;;5005414;28;20481;-41
2021/03/03 05:56:04;;;;;;;37.20;18.27;;;3.80;80.80;;;;;;4992812;28;20477;-41
2021/03/03 05:58:41;;;;;;;32.40;18.83;;;3.80;80.80;;;;;;5020777;28;20456;-41
2021/03/03 06:01:09;;;;;;;33.97;17.53;;;3.80;80.90;;;;;;5004634;28;20535;-41
2021/03/03 06:03:39;;;;;;;33.03;17.63;;;3.80;80.90;;;;;;4990021;28;20456;-41
2021/03/03 06:06:06;;;;;;;32.50;18.60;;;3.80;80.90;;;;;;5022997;28;20878;-41
2021/03/03 06:08:33;;;;;;;36.80;18.57;;;3.80;80.90;;;;;;5007866;28;21013;-41
2021/03/03 06:11:04;;;;;;;30.07;18.90;;;3.80;80.90;;;;;;5024953;28;20458;-41
2021/03/03 06:13:31;;;;;;;29.63;18.67;;;3.80;80.90;;;;;;5022987;28;21488;-41
2021/03/03 06:16:05;;;;;;;33.10;19.00;;;3.80;80.90;;;;;;5024568;28;20451;-41
2021/03/03 06:18:32;;;;;;;30.20;17.93;;;3.80;81.00;;;;;;5022863;28;20470;-41
2021/03/03 06:20:59;;;;;;;32.10;19.80;;;3.80;81.00;;;;;;5005009;28;20467;-41
2021/03/03 06:23:29;;;;;;;28.10;16.53;;;3.80;81.00;;;;;;5025336;28;20834;-41
2021/03/03 06:25:56;;;;;;;34.20;17.60;;;3.80;81.10;;;;;;5019750;28;20473;-41
2021/03/03 06:28:49;;;;;;;39.90;21.07;;;3.80;81.00;;;;;;5028923;28;20992;-41
2021/03/03 06:31:31;;;;;;;30.80;16.43;;;3.80;81.00;;;;;;5005703;28;20499;-41
2021/03/03 06:34:19;;;;;;;34.70;19.10;;;3.80;81.10;;;;;;5028097;28;20459;-41
2021/03/03 06:36:59;;;;;;;30.10;17.20;;;3.80;81.10;;;;;;5023762;28;20521;-41
2021/03/03 06:39:29;;;;;;;33.20;18.97;;;3.80;81.00;;;;;;5039755;28;20507;-41
2021/03/03 06:42:06;;;;;;;32.00;18.23;;;3.80;81.20;;;;;;5022689;28;20495;-41
2021/03/03 06:44:54;;;;;;;28.27;17.73;;;3.80;81.10;;;;;;5023282;28;20857;-42
2021/03/03 06:47:21;;;;;;;29.67;18.83;;;3.80;81.20;;;;;;5004105;28;20911;-41
2021/03/03 06:49:50;;;;;;;32.10;18.07;;;3.90;81.30;;;;;;5023024;28;20495;-41
2021/03/03 06:52:16;;;;;;;29.80;18.60;;;3.90;81.30;;;;;;5022344;28;20546;-41
2021/03/03 06:54:43;;;;;;;30.23;18.00;;;3.90;81.40;;;;;;5001816;28;20523;-41
2021/03/03 06:57:13;;;;;;;30.77;18.00;;;3.90;81.50;;;;;;5007424;28;20501;-41
2021/03/03 06:59:44;;;;;;;35.63;19.03;;;3.90;81.50;;;;;;5026441;28;20815;-41
2021/03/03 07:02:12;;;;;;;31.73;19.63;;;4.00;81.50;;;;;;5007115;28;20960;-41
2021/03/03 07:04:43;;;;;;;29.97;18.33;;;4.00;81.60;;;;;;5006245;28;20486;-41
2021/03/03 07:07:09;;;;;;;37.97;18.47;;;4.00;81.60;;;;;;4989175;28;20539;-41
2021/03/03 07:09:53;;;;;;;32.27;19.73;;;4.10;81.70;;;;;;5024928;28;20618;-41
2021/03/03 07:12:23;;;;;;;32.93;18.97;;;4.10;81.70;;;;;;5038011;28;20495;-41
2021/03/03 07:15:09;;;;;;;28.77;18.87;;;4.20;81.70;;;;;;5006148;28;20469;-41
2021/03/03 07:17:37;;;;;;;34.47;19.00;;;4.20;81.80;;;;;;5022408;28;20563;-41
2021/03/03 07:20:06;;;;;;;33.53;21.13;;;4.20;81.80;;;;;;5022374;28;20547;-41
2021/03/03 07:22:34;;;;;;;38.33;20.97;;;4.30;81.80;;;;;;5036330;28;20483;-41
2021/03/03 07:25:08;;;;;;;36.37;20.00;;;4.30;81.90;;;;;;5004663;28;20463;-41
2021/03/03 07:27:36;;;;;;;36.97;20.27;;;4.40;81.90;;;;;;5007808;28;20510;-41
2021/03/03 07:30:11;;;;;;;37.30;21.47;;;4.50;82.00;;;;;;5004567;28;20470;-41
2021/03/03 07:32:38;;;;;;;40.90;25.97;;;4.50;81.90;;;;;;5026803;28;20902;-41
2021/03/03 07:35:25;;;;;;;48.97;28.73;;;4.60;82.00;;;;;;5022765;28;20443;-41
2021/03/03 07:37:53;;;;;;;58.53;33.93;;;4.70;82.00;;;;;;4992076;28;21027;-41
2021/03/03 07:40:25;;;;;;;62.07;32.50;;;4.70;82.00;;;;;;5020243;28;20550;-41
2021/03/03 07:42:54;;;;;;;40.77;26.40;;;4.80;81.90;;;;;;5008391;28;20821;-41
2021/03/03 07:45:22;;;;;;;39.83;22.40;;;4.90;81.90;;;;;;4990245;28;21043;-41
2021/03/03 07:47:50;;;;;;;35.17;20.10;;;5.00;81.70;;;;;;5022860;28;21012;-41
2021/03/03 07:50:19;;;;;;;36.67;22.90;;;5.10;81.40;;;;;;5027528;28;20486;-41
2021/03/03 07:52:57;;;;;;;35.33;20.00;;;5.20;81.00;;;;;;5025768;28;20590;-41
2021/03/03 07:55:24;;;;;;;33.50;24.00;;;5.40;80.60;;;;;;5024272;28;20549;-41
2021/03/03 07:57:54;;;;;;;34.17;19.60;;;5.40;80.60;;;;;;5019828;28;20550;-41
2021/03/03 08:00:30;;;;;;;31.63;20.57;;;5.40;80.60;;;;;;5018871;28;20550;-41
2021/03/03 08:03:01;;;;;;;38.73;22.47;;;5.40;80.60;;;;;;5022368;28;20509;-41
2021/03/03 08:05:47;;;;;;;39.30;21.37;;;5.50;80.40;;;;;;5016903;28;20471;-41
2021/03/03 08:08:29;;;;;;;32.50;20.90;;;5.50;80.30;;;;;;5021233;28;20479;-41
2021/03/03 08:10:58;;;;;;;35.27;21.50;;;5.50;80.20;;;;;;5021802;28;20483;-41
2021/03/03 08:13:38;;;;;;;37.20;21.53;;;5.60;80.20;;;;;;5019217;28;20843;-41
2021/03/03 08:16:06;;;;;;;37.73;21.20;;;5.60;80.20;;;;;;5023488;28;20864;-41
2021/03/03 08:18:37;;;;;;;41.60;23.80;;;5.70;80.20;;;;;;5022259;28;20541;-41
2021/03/03 08:21:07;;;;;;;34.53;20.47;;;5.70;80.10;;;;;;5015875;28;20552;-41
2021/03/03 08:23:37;;;;;;;36.70;22.80;;;5.80;80.00;;;;;;5023840;28;20930;-41
2021/03/03 08:26:04;;;;;;;34.00;22.43;;;5.80;80.10;;;;;;5023120;28;20455;-41
2021/03/03 08:28:41;;;;;;;40.10;23.60;;;5.90;80.10;;;;;;5037056;28;20586;-41
2021/03/03 08:31:17;;;;;;;38.97;22.00;;;6.00;80.00;;;;;;5023313;28;20924;-41
2021/03/03 08:33:51;;;;;;;38.47;21.67;;;6.10;79.90;;;;;;5030180;28;20457;-41
2021/03/03 08:36:21;;;;;;;43.03;24.73;;;6.20;79.90;;;;;;5041016;28;20490;-41
2021/03/03 08:38:56;;;;;;;33.90;23.80;;;6.30;79.70;;;;;;5029720;28;20451;-41
2021/03/03 08:41:28;;;;;;;43.87;22.90;;;6.40;79.50;;;;;;5024873;28;20991;-41
2021/03/03 08:44:17;;;;;;;39.70;25.03;;;6.50;79.40;;;;;;5025130;28;20967;-41
2021/03/03 08:46:48;;;;;;;40.23;24.23;;;6.60;79.10;;;;;;5022689;28;20460;-41
2021/03/03 08:49:15;;;;;;;35.20;23.57;;;6.70;78.90;;;;;;5024214;28;20502;-41
2021/03/03 08:51:44;;;;;;;39.73;23.67;;;6.80;78.80;;;;;;5026972;28;20506;-41
2021/03/03 08:54:12;;;;;;;35.33;23.50;;;6.90;78.60;;;;;;4995269;28;20452;-41
2021/03/03 08:56:38;;;;;;;34.70;22.63;;;7.00;78.40;;;;;;5013822;28;20866;-41
2021/03/03 08:59:10;;;;;;;40.17;23.90;;;7.10;78.40;;;;;;5027358;28;20819;-41
2021/03/03 09:01:55;;;;;;;48.10;26.03;;;7.10;78.10;;;;;;5041153;28;21198;-41
2021/03/03 09:04:24;;;;;;;36.00;24.40;;;7.20;77.90;;;;;;5042586;28;20993;-41
2021/03/03 09:06:53;;;;;;;36.47;22.63;;;7.30;77.80;;;;;;5025321;28;20771;-41
2021/03/03 09:09:20;;;;;;;40.10;23.40;;;7.40;77.60;;;;;;5007623;28;20533;-41
2021/03/03 09:11:47;;;;;;;39.07;24.97;;;7.50;77.40;;;;;;5035956;28;20791;-41
2021/03/03 09:14:19;;;;;;;37.17;23.70;;;7.60;77.10;;;;;;5025346;28;20510;-41
2021/03/03 09:17:01;;;;;;;46.80;25.93;;;7.70;76.70;;;;;;5022724;28;20554;-41
2021/03/03 09:19:30;;;;;;;38.00;24.60;;;7.90;76.50;;;;;;5023194;28;20459;-41
2021/03/03 09:21:57;;;;;;;36.03;25.67;;;8.00;76.20;;;;;;4989006;28;20514;-41
2021/03/03 09:24:24;;;;;;;41.00;24.37;;;8.10;75.60;;;;;;5026249;28;20887;-41
2021/03/03 09:27:06;;;;;;;39.87;24.80;;;8.20;75.40;;;;;;5024838;28;20972;-41
2021/03/03 09:29:38;;;;;;;38.47;25.97;;;8.30;75.10;;;;;;5025101;28;20490;-41
2021/03/03 09:32:10;;;;;;;39.03;25.13;;;8.30;75.00;;;;;;5028962;28;21010;-41
2021/03/03 09:34:46;;;;;;;47.93;27.67;;;8.40;74.80;;;;;;5008373;28;20460;-41
2021/03/03 09:37:14;;;;;;;46.83;26.17;;;8.50;74.70;;;;;;5037094;28;20503;-41
2021/03/03 09:39:40;;;;;;;34.07;24.07;;;8.60;74.60;;;;;;5007097;28;20503;-41
2021/03/03 09:42:14;;;;;;;35.83;23.70;;;8.70;74.40;;;;;;5027182;28;20506;-41
2021/03/03 09:44:46;;;;;;;38.20;25.50;;;8.80;74.20;;;;;;5007629;28;20487;-41
2021/03/03 09:47:23;;;;;;;41.53;25.40;;;8.90;74.10;;;;;;5024573;28;20455;-41
2021/03/03 09:49:49;;;;;;;40.67;26.17;;;8.90;73.90;;;;;;5006427;28;20510;-41
2021/03/03 09:52:16;;;;;;;39.07;26.43;;;9.00;73.70;;;;;;4990275;28;20541;-41
2021/03/03 09:54:42;;;;;;;39.50;26.07;;;9.00;73.70;;;;;;5008141;28;20456;-41
2021/03/03 09:57:08;;;;;;;40.70;28.37;;;9.10;73.70;;;;;;5005692;28;20827;-41
2021/03/03 09:59:37;;;;;;;40.53;26.10;;;9.30;72.70;;;;;;5021609;28;20468;-41
2021/03/03 10:02:09;;;;;;;45.80;27.70;;;9.40;72.50;;;;;;5026807;28;20870;-41
2021/03/03 10:04:43;;;;;;;40.13;25.97;;;9.40;72.20;;;;;;4990490;28;20456;-41
2021/03/03 10:07:27;;;;;;;46.50;28.20;;;9.60;72.20;;;;;;5024693;28;20451;-41
2021/03/03 10:09:58;;;;;;;41.63;26.30;;;9.80;71.10;;;;;;5006874;28;21000;-41
2021/03/03 10:12:35;;;;;;;41.67;26.93;;;10.00;70.40;;;;;;5009394;28;20484;-41
2021/03/03 10:15:09;;;;;;;42.20;26.70;;;10.20;70.10;;;;;;5024684;28;20487;-41
2021/03/03 10:17:48;;;;;;;44.97;25.93;;;10.50;69.00;;;;;;5022682;28;20812;-41
2021/03/03 10:20:31;;;;;;;39.70;26.23;;;10.60;68.60;;;;;;5010409;28;20533;-41
2021/03/03 10:23:05;;;;;;;40.70;26.00;;;10.90;67.60;;;;;;5021181;28;21008;-41
2021/03/03 10:25:40;;;;;;;42.23;25.47;;;11.10;67.30;;;;;;5041853;28;20529;-41
2021/03/03 10:28:15;;;;;;;37.90;25.07;;;11.20;67.40;;;;;;5020400;28;20456;-41
2021/03/03 10:30:46;;;;;;;37.67;26.23;;;11.40;67.20;;;;;;5026960;28;20537;-41
2021/03/03 10:33:26;;;;;;;39.57;27.83;;;11.60;66.60;;;;;;5006903;28;20486;-41
2021/03/03 10:35:53;;;;;;;37.57;24.67;;;11.90;66.00;;;;;;5026378;28;20452;-41
2021/03/03 10:38:21;;;;;;;34.70;23.47;;;12.10;65.20;;;;;;5014081;28;20978;-41
2021/03/03 10:40:50;;;;;;;36.63;24.90;;;12.40;64.40;;;;;;5033474;28;20542;-41
2021/03/03 10:43:19;;;;;;;41.70;26.10;;;12.50;64.10;;;;;;5016699;28;20467;-42
2021/03/03 10:45:47;;;;;;;39.17;25.60;;;12.80;63.00;;;;;;5017006;28;20507;-41
2021/03/03 10:48:30;;;;;;;38.20;25.60;;;12.90;62.40;;;;;;5026087;28;20498;-41
2021/03/03 10:51:01;;;;;;;35.27;26.47;;;13.00;62.10;;;;;;5024948;28;20483;-41
2021/03/03 10:53:52;;;;;;;40.70;26.70;;;13.20;61.00;;;;;;4993592;28;20840;-41
2021/03/03 10:56:19;;;;;;;41.07;26.73;;;13.30;60.50;;;;;;5022068;28;20528;-41
2021/03/03 10:58:49;;;;;;;35.23;26.53;;;13.30;60.40;;;;;;5031029;28;20509;-41
2021/03/03 11:01:17;;;;;;;36.27;26.10;;;13.30;60.80;;;;;;5006592;28;20811;-41
2021/03/03 11:03:57;;;;;;;35.33;24.77;;;13.20;61.00;;;;;;5010020;28;20455;-41
2021/03/03 11:06:32;;;;;;;41.33;26.93;;;13.30;61.10;;;;;;5019694;28;20546;-40
2021/03/03 11:09:00;;;;;;;39.20;26.10;;;13.30;61.10;;;;;;5023273;28;20955;-41
2021/03/03 11:11:30;;;;;;;37.50;24.90;;;13.40;61.20;;;;;;5026057;28;20468;-41
2021/03/03 11:13:57;;;;;;;41.00;26.37;;;13.50;61.70;;;;;;5027429;28;20826;-41
2021/03/03 11:16:23;;;;;;;37.83;25.50;;;13.50;60.90;;;;;;5025632;28;20542;-41
2021/03/03 11:18:50;;;;;;;40.47;26.93;;;13.50;61.00;;;;;;5022481;28;20448;-41
2021/03/03 11:21:17;;;;;;;39.60;25.73;;;13.50;60.70;;;;;;5019791;28;20457;-41
2021/03/03 11:23:44;;;;;;;41.37;27.10;;;13.60;60.60;;;;;;5024603;28;20463;-41
2021/03/03 11:26:11;;;;;;;38.53;24.20;;;13.60;60.60;;;;;;5006308;28;20506;-41
2021/03/03 11:28:37;;;;;;;35.73;26.20;;;13.70;60.90;;;;;;5023724;28;20518;-40
2021/03/03 11:31:04;;;;;;;36.77;26.30;;;13.80;60.90;;;;;;5022802;28;20962;-41
2021/03/03 11:33:31;;;;;;;39.53;25.87;;;13.80;61.00;;;;;;5021715;28;20943;-41
2021/03/03 11:35:58;;;;;;;36.27;24.50;;;13.90;60.80;;;;;;5024822;28;20485;-41
2021/03/03 11:38:28;;;;;;;41.47;27.47;;;13.90;60.70;;;;;;5027022;28;20454;-41
2021/03/03 11:40:54;;;;;;;41.53;27.00;;;13.90;60.70;;;;;;5008680;28;20546;-41
2021/03/03 11:43:20;;;;;;;37.67;26.90;;;14.00;60.60;;;;;;5029249;28;20948;-42
2021/03/03 11:45:47;;;;;;;37.00;25.07;;;14.10;60.50;;;;;;5001098;28;21046;-41
2021/03/03 11:48:13;;;;;;;37.60;25.70;;;14.10;60.60;;;;;;5004869;28;20499;-41
2021/03/03 11:50:40;;;;;;;38.10;26.40;;;14.10;60.70;;;;;;5040210;28;20458;-41
2021/03/03 11:53:06;;;;;;;37.30;25.90;;;14.10;60.60;;;;;;5001140;28;20486;-41
2021/03/03 11:55:32;;;;;;;39.10;26.47;;;14.10;60.70;;;;;;5002250;28;20558;-41
2021/03/03 11:57:58;;;;;;;37.53;25.63;;;14.10;60.70;;;;;;5007672;28;20542;-41
2021/03/03 12:00:25;;;;;;;39.20;28.17;;;14.20;61.00;;;;;;5004796;28;20476;-41
2021/03/03 12:02:53;;;;;;;37.80;25.80;;;14.20;60.70;;;;;;5005748;28;20465;-41
2021/03/03 12:05:20;;;;;;;37.97;26.77;;;14.20;60.90;;;;;;5003761;28;20468;-41
2021/03/03 12:07:47;;;;;;;37.17;27.37;;;14.20;60.80;;;;;;5026141;28;20450;-41
2021/03/03 12:10:13;;;;;;;34.83;26.33;;;14.20;60.80;;;;;;5008182;28;20519;-41
2021/03/03 12:12:47;;;;;;;39.87;27.70;;;14.30;60.80;;;;;;5012033;28;20444;-41
2021/03/03 12:15:17;;;;;;;36.30;25.43;;;14.30;60.80;;;;;;5029222;28;20483;-41
2021/03/03 12:17:44;;;;;;;34.70;25.47;;;14.30;60.80;;;;;;5007167;28;20551;-41
2021/03/03 12:20:30;;;;;;;37.33;25.67;;;14.40;60.80;;;;;;5015400;28;20517;-41
2021/03/03 12:22:57;;;;;;;38.07;21.90;;;14.40;60.70;;;;;;5007717;28;20459;-41
2021/03/03 12:25:25;;;;;;;30.90;20.87;;;14.50;59.30;;;;;;5010813;28;20459;-41
2021/03/03 12:27:52;;;;;;;32.03;22.10;;;14.50;58.50;;;;;;5024914;28;21018;-41
2021/03/03 12:30:19;;;;;;;40.37;20.17;;;14.50;57.90;;;;;;5026232;28;20487;-41
2021/03/03 12:32:45;;;;;;;32.40;21.30;;;14.60;57.80;;;;;;5023842;28;20495;-41
2021/03/03 12:35:13;;;;;;;31.60;20.37;;;14.70;57.60;;;;;;5007097;28;20460;-41
2021/03/03 12:37:39;;;;;;;32.30;21.30;;;14.80;56.50;;;;;;4999142;28;20480;-41
2021/03/03 12:40:07;;;;;;;34.07;22.37;;;14.80;56.70;;;;;;5029897;28;20509;-41
2021/03/03 12:42:34;;;;;;;32.50;22.73;;;14.80;56.80;;;;;;5007379;28;20467;-41
2021/03/03 12:45:01;;;;;;;31.40;21.53;;;14.80;56.70;;;;;;5026548;28;20498;-41
2021/03/03 12:47:31;;;;;;;32.67;23.00;;;14.90;56.70;;;;;;5023460;28;20956;-41
2021/03/03 12:49:58;;;;;;;37.53;24.20;;;14.90;57.10;;;;;;5026659;28;20509;-41